Mansfield Lahm Regional Airport
KMFD : now visible

Airfield :











YOU CAN JOIN US ON...

 
LOGIN :

Register | Disclaimer

   EN    FR    IT 

 









Legend :    VFR   Marginal VFR   IFR   Intensive IFR   Very Intensive IFR
Visi :
Ceiling :
>= 8 km
>= 3000ft
5 to 8 km
1000 to 3000 ft
1500m to 5 km
500 to 1000 ft
800 to 1500m
200 to 500 ft
< 800m
< 200 ft
Symbols :   Thunderstorms  Fog  Heavy snow  Heavy precipitations  Wind > 20 kt






- Airport Elevation : 1297 ft


KMFD - Mansfield Lahm Regional

CURRENT METAR :
  • 041552Z 10SM -RA FEW020 SCT055 OVC100 22/18 A2994 RMK AO2 RAB52 SLP131 P0000 T02170183

EXPIRED METARs :
  • 041542Z 10SM FEW016 BKN055 OVC110 22/18 A2994 RMK AO2 T02220183
  • 041452Z 31009KT 10SM FEW014 BKN019 OVC043 21/19 A2993 RMK AO2 SLP127 T02110189 53002
  • 041352Z 33008KT 10SM SCT008 BKN016 OVC021 21/19 A2992 RMK AO2 SLP124 T02110194
  • 041332Z 33009KT 6SM BR SCT004 OVC016 20/20 A2992 RMK AO2 T02000200

TAF KMFD
Valid from the 04 at 15:00 until the 05 at 12:00 UTC


041445Z 0415/0512 33007KT P6SM VCSH SCT010 BKN025
TEMPO 0416/0419 3SM -TSRA BKN010CB
FM041900 31010KT P6SM SCT015 BKN025
FM042100 30010KT P6SM SCT025 BKN070
KZOB FIR / North America



MET'MAP, your aeronautical weather chart ! - Copyright ORBIFLY December 2007 - Disclaimer

ORBIFLY MET'MAP TEAM :

Programming & Development : Alexandra Zaïnal
Concept & original design : Baudouin d'Aumeries
Assistance for programming : Marc-Olivier Méhu
Technical & hardware support : Manuel Goepfert

Contact : metmap@orbifly.com




SOURCES & CREDITS :

   NOAA       Earth
Advisory